Time;durP1;ratioP1;P1;durP2;ratioP2;P2;SDS_P1;SDS_P2;PMS_P1;PMS_P2;Temp;Humidity;BMP_temperature;BMP_pressure;BME280_temperature;BME280_humidity;BME280_pressure;Samples;Min_cycle;Max_cycle;Signal;HPM_P1;HPM_P2
2023/01/17 00:00:06;;;;;;;1.00;0.70;;;;;;;;;;5059413;28;20112;-80
2023/01/17 00:02:51;;;;;;;1.52;0.77;;;;;;;;;;5044199;28;20025;-77
2023/01/17 00:11:46;;;;;;;1.45;0.88;;;;;;;;;;5044452;28;20468;-73
2023/01/17 00:14:31;;;;;;;1.88;0.90;;;;;;;;;;5042408;28;20055;-73
2023/01/17 00:17:17;;;;;;;1.00;0.70;;;;;;;;;;5043631;28;20056;-74
2023/01/17 00:26:13;;;;;;;2.03;0.93;;;;;;;;;;5045527;28;20029;-68
2023/01/17 01:34:35;;;;;;;1.75;1.00;;;;;;;;;;5047565;28;20028;-74
2023/01/17 01:37:20;;;;;;;2.58;1.10;;;;;;;;;;5026590;28;20025;-65
2023/01/17 01:40:06;;;;;;;1.35;1.00;;;;;;;;;;5037907;28;20504;-65
2023/01/17 01:42:52;;;;;;;2.05;1.00;;;;;;;;;;5055498;28;20084;-66
2023/01/17 01:45:38;;;;;;;1.20;0.90;;;;;;;;;;5040916;28;20126;-66
2023/01/17 01:48:26;;;;;;;1.98;1.00;;;;;;;;;;5044267;28;20043;-67
2023/01/17 01:51:16;;;;;;;2.25;0.90;;;;;;;;;;5030584;28;20138;-66
2023/01/17 01:54:04;;;;;;;1.52;1.00;;;;;;;;;;5056999;28;20044;-70
2023/01/17 01:56:50;;;;;;;1.33;1.00;;;;;;;;;;5040390;28;20032;-75
2023/01/17 01:59:37;;;;;;;1.63;1.08;;;;;;;;;;5061975;28;20028;-73
2023/01/17 02:02:22;;;;;;;1.08;0.80;;;;;;;;;;5044700;28;20352;-76
2023/01/17 02:05:08;;;;;;;3.13;1.05;;;;;;;;;;5055633;28;20040;-75
2023/01/17 02:07:57;;;;;;;1.95;1.08;;;;;;;;;;5042921;28;20124;-73
2023/01/17 02:10:46;;;;;;;1.50;1.00;;;;;;;;;;5042824;28;20276;-75
2023/01/17 02:13:31;;;;;;;2.05;1.15;;;;;;;;;;5037935;28;20388;-75
2023/01/17 02:16:31;;;;;;;3.53;0.98;;;;;;;;;;5040863;28;20042;-74
2023/01/17 02:19:23;;;;;;;3.03;1.10;;;;;;;;;;5030053;28;20025;-75
2023/01/17 02:22:11;;;;;;;2.50;1.55;;;;;;;;;;5042826;28;20021;-74
2023/01/17 02:25:03;;;;;;;1.90;0.98;;;;;;;;;;5039924;28;20029;-75
2023/01/17 02:27:51;;;;;;;2.08;1.02;;;;;;;;;;5043688;28;20543;-74
2023/01/17 02:30:40;;;;;;;2.88;1.08;;;;;;;;;;5027132;28;20021;-75
2023/01/17 02:33:44;;;;;;;1.95;1.17;;;;;;;;;;5049189;28;20025;-75
2023/01/17 02:36:32;;;;;;;1.48;1.00;;;;;;;;;;5028915;28;20480;-74
2023/01/17 02:39:20;;;;;;;6.40;1.50;;;;;;;;;;5043368;28;20045;-77
2023/01/17 02:42:08;;;;;;;2.17;1.38;;;;;;;;;;5040312;28;20179;-73
2023/01/17 02:44:54;;;;;;;1.35;1.02;;;;;;;;;;5028694;28;20561;-74
2023/01/17 02:47:39;;;;;;;1.95;1.00;;;;;;;;;;5043886;28;20033;-75
2023/01/17 02:50:27;;;;;;;1.30;1.00;;;;;;;;;;5045171;28;20024;-67
2023/01/17 02:53:12;;;;;;;1.50;1.10;;;;;;;;;;5040850;28;20028;-76
2023/01/17 02:56:16;;;;;;;1.50;1.05;;;;;;;;;;5042699;28;20111;-78
2023/01/17 02:59:11;;;;;;;1.73;1.00;;;;;;;;;;5040938;28;20024;-78
2023/01/17 03:01:59;;;;;;;1.20;0.90;;;;;;;;;;5038693;28;20531;-77
2023/01/17 03:04:46;;;;;;;2.67;1.10;;;;;;;;;;5049425;28;20235;-76
2023/01/17 03:07:31;;;;;;;1.70;0.90;;;;;;;;;;5039423;28;20438;-72
2023/01/17 03:10:17;;;;;;;1.65;0.90;;;;;;;;;;5054339;28;20475;-77
2023/01/17 03:13:03;;;;;;;6.10;1.30;;;;;;;;;;5027603;28;20033;-77
2023/01/17 03:15:48;;;;;;;3.50;1.30;;;;;;;;;;5036166;28;20094;-77
2023/01/17 03:18:34;;;;;;;3.10;1.20;;;;;;;;;;5043370;28;20056;-77
2023/01/17 03:21:20;;;;;;;2.60;1.42;;;;;;;;;;5035597;28;20036;-77
2023/01/17 03:24:05;;;;;;;2.33;1.38;;;;;;;;;;5039232;28;20043;-77
2023/01/17 03:26:50;;;;;;;1.05;1.00;;;;;;;;;;5038171;28;20303;-70
2023/01/17 03:29:35;;;;;;;1.35;0.77;;;;;;;;;;5041231;28;20061;-78
2023/01/17 03:32:20;;;;;;;3.00;1.20;;;;;;;;;;5040342;28;20112;-77
2023/01/17 03:35:06;;;;;;;1.98;1.67;;;;;;;;;;5038278;28;20091;-78
2023/01/17 03:37:51;;;;;;;1.65;1.00;;;;;;;;;;5042192;28;20054;-77
2023/01/17 03:40:36;;;;;;;2.45;1.10;;;;;;;;;;5038860;28;20091;-77
2023/01/17 03:43:21;;;;;;;3.05;1.08;;;;;;;;;;5041902;28;20087;-69
2023/01/17 03:46:16;;;;;;;2.90;1.17;;;;;;;;;;5038940;28;20167;-77
2023/01/17 03:49:01;;;;;;;1.85;1.15;;;;;;;;;;5043517;28;20033;-75
2023/01/17 03:51:47;;;;;;;1.63;1.20;;;;;;;;;;5042103;28;20068;-73
2023/01/17 03:54:32;;;;;;;2.40;1.20;;;;;;;;;;5026228;28;20036;-76
2023/01/17 03:57:17;;;;;;;4.28;1.27;;;;;;;;;;5027885;28;20017;-75
2023/01/17 04:00:02;;;;;;;1.67;0.90;;;;;;;;;;5038131;28;20029;-75
2023/01/17 04:02:48;;;;;;;1.45;1.00;;;;;;;;;;5040733;28;20037;-69
2023/01/17 04:05:33;;;;;;;1.65;1.27;;;;;;;;;;5042486;28;20025;-78
2023/01/17 04:08:18;;;;;;;1.25;0.98;;;;;;;;;;5054429;28;20064;-78
2023/01/17 04:11:04;;;;;;;3.05;1.15;;;;;;;;;;5040917;28;20028;-76
2023/01/17 04:13:49;;;;;;;1.90;1.10;;;;;;;;;;5041563;28;20033;-76
2023/01/17 04:16:35;;;;;;;1.48;0.80;;;;;;;;;;5041782;28;20029;-79
2023/01/17 04:19:21;;;;;;;1.00;0.90;;;;;;;;;;5045817;28;20127;-76
2023/01/17 04:22:06;;;;;;;1.48;0.80;;;;;;;;;;5041515;28;20036;-72
2023/01/17 04:24:51;;;;;;;2.85;0.98;;;;;;;;;;5038750;28;20033;-71
2023/01/17 04:27:36;;;;;;;1.17;1.00;;;;;;;;;;5038515;28;20116;-69
2023/01/17 04:30:22;;;;;;;1.52;1.10;;;;;;;;;;5045591;28;20116;-69
2023/01/17 04:33:07;;;;;;;2.17;1.17;;;;;;;;;;5045911;28;20418;-68
2023/01/17 04:35:53;;;;;;;1.65;1.42;;;;;;;;;;5036037;28;20052;-72
2023/01/17 04:38:38;;;;;;;1.35;0.90;;;;;;;;;;5044174;28;20217;-79
2023/01/17 04:41:23;;;;;;;1.65;1.00;;;;;;;;;;5051753;28;20539;-75
2023/01/17 04:44:08;;;;;;;2.00;1.15;;;;;;;;;;5040404;28;20029;-71
2023/01/17 04:46:53;;;;;;;2.83;1.23;;;;;;;;;;5044647;28;20115;-71
2023/01/17 04:49:39;;;;;;;2.10;1.02;;;;;;;;;;5030190;28;20120;-71
2023/01/17 04:52:24;;;;;;;2.17;1.20;;;;;;;;;;5030211;28;20124;-74
2023/01/17 04:55:09;;;;;;;2.15;1.30;;;;;;;;;;5042433;28;20025;-71
2023/01/17 04:57:55;;;;;;;2.20;1.35;;;;;;;;;;5027759;28;20361;-70
2023/01/17 05:00:40;;;;;;;2.00;1.20;;;;;;;;;;5043774;28;20017;-74
2023/01/17 05:03:25;;;;;;;1.80;0.98;;;;;;;;;;5041845;28;20051;-74
2023/01/17 05:06:11;;;;;;;1.23;0.90;;;;;;;;;;5041207;28;20053;-74
2023/01/17 05:08:56;;;;;;;4.55;1.02;;;;;;;;;;5045323;28;20511;-73
2023/01/17 05:11:41;;;;;;;2.67;1.08;;;;;;;;;;5045873;28;20033;-76
2023/01/17 05:14:26;;;;;;;1.85;1.17;;;;;;;;;;5044010;28;20026;-73
2023/01/17 05:17:12;;;;;;;2.15;1.08;;;;;;;;;;5043085;28;20486;-68
2023/01/17 05:19:57;;;;;;;3.13;1.30;;;;;;;;;;5024151;28;20183;-68
2023/01/17 05:22:42;;;;;;;2.92;0.95;;;;;;;;;;5035609;28;20112;-69
2023/01/17 05:25:28;;;;;;;4.93;1.77;;;;;;;;;;5042589;28;20029;-71
2023/01/17 05:28:13;;;;;;;2.85;1.45;;;;;;;;;;5055180;28;20041;-69
2023/01/17 05:30:59;;;;;;;1.88;1.33;;;;;;;;;;5043683;28;20025;-69
2023/01/17 05:33:44;;;;;;;2.67;1.40;;;;;;;;;;5038402;28;20519;-67
2023/01/17 05:36:29;;;;;;;2.83;1.63;;;;;;;;;;5040425;28;20025;-74
2023/01/17 05:39:14;;;;;;;2.97;1.42;;;;;;;;;;5054377;28;20047;-76
2023/01/17 05:42:00;;;;;;;3.38;1.40;;;;;;;;;;5042151;28;20493;-76
2023/01/17 05:44:45;;;;;;;3.35;1.48;;;;;;;;;;5052465;28;20017;-76
2023/01/17 05:47:30;;;;;;;3.00;1.92;;;;;;;;;;5042738;28;20032;-75
2023/01/17 05:50:17;;;;;;;4.38;1.35;;;;;;;;;;5044695;28;20115;-76
2023/01/17 05:53:04;;;;;;;2.28;1.50;;;;;;;;;;5043918;28;20460;-76
2023/01/17 05:55:49;;;;;;;4.05;1.60;;;;;;;;;;5042482;28;20195;-71
2023/01/17 05:58:34;;;;;;;3.15;1.40;;;;;;;;;;5042682;28;20025;-71
2023/01/17 06:01:20;;;;;;;6.03;1.65;;;;;;;;;;5053988;28;20036;-71
2023/01/17 06:04:05;;;;;;;3.67;1.58;;;;;;;;;;5040932;28;20025;-70
2023/01/17 06:06:50;;;;;;;5.00;1.80;;;;;;;;;;5040348;28;20046;-71
2023/01/17 06:09:35;;;;;;;6.55;1.88;;;;;;;;;;5043250;28;20036;-74
2023/01/17 06:12:20;;;;;;;3.65;1.63;;;;;;;;;;5038706;28;20028;-69
2023/01/17 06:15:06;;;;;;;3.80;1.27;;;;;;;;;;5031917;28;20216;-78
2023/01/17 06:17:51;;;;;;;2.67;1.83;;;;;;;;;;5061106;28;20036;-76
2023/01/17 06:20:37;;;;;;;5.65;1.48;;;;;;;;;;5036861;28;20071;-76
2023/01/17 06:23:22;;;;;;;2.10;1.30;;;;;;;;;;5037758;28;20040;-74
2023/01/17 06:26:08;;;;;;;3.35;2.17;;;;;;;;;;5043947;28;20059;-78
2023/01/17 06:28:53;;;;;;;3.65;1.75;;;;;;;;;;5043553;28;20040;-72
2023/01/17 06:31:38;;;;;;;2.95;1.70;;;;;;;;;;5043496;28;20078;-69
2023/01/17 06:34:24;;;;;;;5.47;1.70;;;;;;;;;;5029993;28;20032;-69
2023/01/17 06:37:09;;;;;;;2.88;1.60;;;;;;;;;;5044680;28;20029;-70
2023/01/17 06:39:54;;;;;;;5.63;1.98;;;;;;;;;;5045827;28;20128;-67
2023/01/17 06:42:39;;;;;;;2.45;1.67;;;;;;;;;;5044129;28;20024;-68
2023/01/17 06:45:24;;;;;;;2.78;1.90;;;;;;;;;;5041504;28;20510;-65
2023/01/17 06:48:10;;;;;;;2.65;1.50;;;;;;;;;;5052351;28;20090;-76
2023/01/17 06:50:56;;;;;;;2.22;1.48;;;;;;;;;;5045110;28;20380;-68
2023/01/17 06:53:41;;;;;;;2.45;1.60;;;;;;;;;;5039508;28;20056;-72
2023/01/17 06:56:28;;;;;;;4.57;1.83;;;;;;;;;;5054203;28;20051;-70
2023/01/17 06:59:14;;;;;;;4.80;1.75;;;;;;;;;;5040715;28;20029;-69
2023/01/17 07:01:59;;;;;;;3.65;1.67;;;;;;;;;;5045379;28;20017;-70
2023/01/17 07:04:44;;;;;;;3.03;1.30;;;;;;;;;;5045039;28;20053;-68
2023/01/17 07:07:31;;;;;;;4.13;1.40;;;;;;;;;;5045474;28;20085;-75
2023/01/17 07:10:16;;;;;;;3.13;1.75;;;;;;;;;;5046368;28;21008;-76
2023/01/17 07:13:01;;;;;;;5.03;1.73;;;;;;;;;;5042806;28;20053;-76
2023/01/17 07:15:47;;;;;;;3.20;1.73;;;;;;;;;;5045562;28;20081;-75
2023/01/17 07:18:32;;;;;;;3.80;1.90;;;;;;;;;;5046570;28;20441;-75
2023/01/17 07:21:18;;;;;;;4.50;1.70;;;;;;;;;;5047840;28;20511;-75
2023/01/17 07:24:03;;;;;;;5.40;1.63;;;;;;;;;;5028040;28;20189;-77
2023/01/17 07:26:51;;;;;;;2.65;1.52;;;;;;;;;;5032135;28;20376;-64
2023/01/17 07:29:37;;;;;;;3.00;1.73;;;;;;;;;;5041339;28;20033;-73
2023/01/17 07:32:22;;;;;;;4.40;1.63;;;;;;;;;;5043134;28;20029;-75
2023/01/17 07:35:07;;;;;;;4.50;1.75;;;;;;;;;;5023020;28;20079;-75
2023/01/17 07:37:53;;;;;;;3.97;1.45;;;;;;;;;;5031854;28;20036;-78
2023/01/17 07:40:38;;;;;;;6.13;2.05;;;;;;;;;;5038868;28;20044;-80
2023/01/17 07:43:23;;;;;;;5.43;2.08;;;;;;;;;;5048856;28;20074;-70
2023/01/17 07:46:09;;;;;;;5.38;2.47;;;;;;;;;;5043157;28;20112;-75
2023/01/17 07:48:54;;;;;;;5.57;2.58;;;;;;;;;;5045678;28;20071;-78
2023/01/17 07:51:39;;;;;;;5.10;2.45;;;;;;;;;;5065386;28;20328;-73
2023/01/17 07:54:24;;;;;;;7.05;2.88;;;;;;;;;;5048074;28;20032;-73
2023/01/17 07:57:10;;;;;;;7.55;2.97;;;;;;;;;;5047807;28;20032;-73
2023/01/17 07:59:55;;;;;;;7.40;3.10;;;;;;;;;;5044980;28;20059;-74
2023/01/17 08:02:41;;;;;;;6.85;3.55;;;;;;;;;;5043304;28;20112;-66
2023/01/17 08:05:26;;;;;;;8.90;2.80;;;;;;;;;;5048299;28;20380;-72
2023/01/17 08:08:12;;;;;;;6.90;3.92;;;;;;;;;;5044645;28;20037;-80
2023/01/17 08:10:57;;;;;;;9.75;4.55;;;;;;;;;;5042133;28;20025;-77
2023/01/17 08:13:42;;;;;;;10.02;4.40;;;;;;;;;;5026090;28;20032;-76
2023/01/17 08:16:28;;;;;;;10.30;4.53;;;;;;;;;;5044299;28;20060;-75
2023/01/17 08:19:14;;;;;;;7.97;4.65;;;;;;;;;;5044588;28;20044;-72
2023/01/17 08:21:59;;;;;;;7.85;4.13;;;;;;;;;;5042537;28;20026;-71
2023/01/17 08:24:44;;;;;;;5.82;3.70;;;;;;;;;;5040881;28;20339;-76
2023/01/17 08:27:29;;;;;;;6.45;3.08;;;;;;;;;;5030255;28;20105;-74
2023/01/17 08:30:15;;;;;;;9.00;3.28;;;;;;;;;;5030770;28;20480;-77
2023/01/17 08:33:00;;;;;;;7.80;3.63;;;;;;;;;;5041681;28;20033;-74
2023/01/17 08:35:52;;;;;;;6.90;3.20;;;;;;;;;;5028474;28;20030;-74
2023/01/17 08:38:37;;;;;;;8.60;3.28;;;;;;;;;;5025595;28;20504;-78
2023/01/17 08:41:23;;;;;;;7.47;4.13;;;;;;;;;;5034514;28;20058;-73
2023/01/17 08:44:08;;;;;;;7.85;3.20;;;;;;;;;;5039163;28;20492;-72
2023/01/17 08:46:54;;;;;;;7.03;3.15;;;;;;;;;;5046841;28;20075;-71
2023/01/17 08:49:39;;;;;;;6.72;3.03;;;;;;;;;;5043827;28;20072;-71
2023/01/17 08:52:25;;;;;;;8.30;3.58;;;;;;;;;;5038038;28;20025;-74
2023/01/17 08:55:10;;;;;;;8.93;3.53;;;;;;;;;;5034994;28;20037;-70
2023/01/17 08:57:55;;;;;;;6.63;2.75;;;;;;;;;;5059568;28;20585;-71
2023/01/17 09:00:41;;;;;;;8.80;3.90;;;;;;;;;;5036263;28;20083;-72
2023/01/17 09:03:26;;;;;;;8.38;3.35;;;;;;;;;;5030264;28;20022;-71
2023/01/17 09:06:13;;;;;;;7.68;4.07;;;;;;;;;;5029583;28;20463;-72
2023/01/17 09:08:58;;;;;;;9.07;3.50;;;;;;;;;;5031676;28;20040;-74
2023/01/17 09:11:43;;;;;;;5.20;3.20;;;;;;;;;;5032511;28;20082;-73
2023/01/17 09:14:29;;;;;;;8.98;4.40;;;;;;;;;;5044807;28;20395;-73
2023/01/17 09:17:14;;;;;;;7.60;2.90;;;;;;;;;;5045592;28;20517;-72
2023/01/17 09:19:59;;;;;;;9.77;3.55;;;;;;;;;;5046422;28;20032;-70
2023/01/17 09:22:44;;;;;;;5.88;3.20;;;;;;;;;;5039864;28;20028;-70
2023/01/17 09:25:30;;;;;;;5.78;2.70;;;;;;;;;;5042374;28;20028;-72
2023/01/17 09:28:15;;;;;;;5.47;2.50;;;;;;;;;;5047889;28;20722;-71
2023/01/17 09:31:04;;;;;;;6.40;4.30;;;;;;;;;;5047092;28;20039;-71
2023/01/17 09:33:50;;;;;;;5.40;2.38;;;;;;;;;;5042037;28;20039;-75
2023/01/17 09:36:36;;;;;;;9.05;2.80;;;;;;;;;;5038608;28;20041;-70
2023/01/17 09:39:21;;;;;;;8.15;2.90;;;;;;;;;;5047643;28;20062;-70
2023/01/17 09:42:30;;;;;;;5.00;2.58;;;;;;;;;;5047643;28;20036;-70
2023/01/17 09:45:17;;;;;;;6.40;2.50;;;;;;;;;;5045591;28;20036;-70
2023/01/17 09:48:05;;;;;;;5.15;2.30;;;;;;;;;;5043383;28;20036;-72
2023/01/17 09:50:58;;;;;;;17.50;3.45;;;;;;;;;;5047393;28;20041;-73
2023/01/17 09:53:43;;;;;;;5.93;2.53;;;;;;;;;;5044388;28;20519;-69
2023/01/17 09:56:39;;;;;;;6.28;2.50;;;;;;;;;;5046122;28;20112;-68
2023/01/17 09:59:41;;;;;;;5.45;2.25;;;;;;;;;;5046379;28;20028;-71
2023/01/17 10:02:29;;;;;;;4.47;2.53;;;;;;;;;;5060832;28;20476;-70
2023/01/17 10:05:33;;;;;;;5.88;2.42;;;;;;;;;;5044703;28;20033;-70
2023/01/17 10:08:27;;;;;;;3.63;2.40;;;;;;;;;;5044863;28;20040;-70
2023/01/17 10:11:12;;;;;;;5.63;2.20;;;;;;;;;;5043720;28;20108;-67
2023/01/17 10:14:00;;;;;;;6.85;2.35;;;;;;;;;;5036437;28;20079;-72
2023/01/17 10:17:04;;;;;;;3.08;1.80;;;;;;;;;;5044912;28;20060;-69
2023/01/17 10:19:50;;;;;;;3.90;2.28;;;;;;;;;;5024172;28;20025;-71
2023/01/17 10:22:41;;;;;;;4.65;1.98;;;;;;;;;;5040464;28;20032;-70
2023/01/17 10:25:31;;;;;;;3.20;1.65;;;;;;;;;;5029906;28;20032;-74
2023/01/17 10:28:29;;;;;;;4.20;1.40;;;;;;;;;;5037572;28;20045;-75
2023/01/17 10:31:20;;;;;;;3.17;1.55;;;;;;;;;;5013937;28;20108;-74
2023/01/17 10:34:12;;;;;;;6.38;2.13;;;;;;;;;;5009944;28;20453;-74
2023/01/17 10:37:02;;;;;;;3.42;1.75;;;;;;;;;;5022062;28;20056;-74
2023/01/17 10:39:48;;;;;;;4.00;2.00;;;;;;;;;;5004786;28;20647;-73
2023/01/17 10:42:42;;;;;;;8.55;2.47;;;;;;;;;;5001230;28;20418;-72
2023/01/17 10:45:27;;;;;;;5.38;1.35;;;;;;;;;;4997005;28;20034;-71
2023/01/17 10:48:33;;;;;;;4.85;1.80;;;;;;;;;;4996904;28;20673;-74
2023/01/17 10:51:48;;;;;;;3.25;1.17;;;;;;;;;;5024014;28;20037;-76
2023/01/17 10:54:34;;;;;;;3.42;1.17;;;;;;;;;;5003679;28;20022;-76
2023/01/17 10:57:21;;;;;;;4.88;1.65;;;;;;;;;;5002330;28;20126;-77
2023/01/17 11:00:25;;;;;;;3.55;1.25;;;;;;;;;;5000942;28;20017;-77
2023/01/17 11:03:12;;;;;;;3.78;1.48;;;;;;;;;;5012713;28;20063;-76
2023/01/17 11:06:15;;;;;;;2.05;1.30;;;;;;;;;;5011676;28;20022;-73
2023/01/17 11:09:01;;;;;;;1.38;0.93;;;;;;;;;;5015003;28;20156;-68
2023/01/17 11:11:49;;;;;;;2.65;0.80;;;;;;;;;;5025644;28;20029;-71
2023/01/17 11:14:34;;;;;;;5.00;1.42;;;;;;;;;;5022524;28;20033;-70
2023/01/17 11:17:20;;;;;;;2.10;1.13;;;;;;;;;;5027251;28;20025;-68
2023/01/17 11:20:11;;;;;;;2.38;0.90;;;;;;;;;;5006361;28;20393;-68
2023/01/17 11:23:25;;;;;;;3.65;1.20;;;;;;;;;;5023734;28;20140;-69
2023/01/17 11:26:19;;;;;;;2.58;1.02;;;;;;;;;;5022600;28;20103;-72
2023/01/17 11:29:23;;;;;;;1.77;0.93;;;;;;;;;;5029662;28;20381;-73
2023/01/17 11:32:18;;;;;;;2.15;1.10;;;;;;;;;;5023041;28;20033;-71
2023/01/17 11:35:05;;;;;;;2.95;0.93;;;;;;;;;;5031785;28;20033;-71
2023/01/17 11:38:01;;;;;;;1.85;1.00;;;;;;;;;;5025960;28;20036;-71
2023/01/17 11:40:48;;;;;;;3.47;1.38;;;;;;;;;;5038890;28;20037;-72
2023/01/17 11:43:46;;;;;;;3.90;1.17;;;;;;;;;;5026446;28;20030;-70
2023/01/17 11:46:32;;;;;;;5.13;1.55;;;;;;;;;;5028836;28;20033;-82
2023/01/17 11:49:21;;;;;;;4.80;1.65;;;;;;;;;;5029195;28;20085;-82
2023/01/17 11:52:06;;;;;;;;;;;;;;;;;;5008485;28;20075;-82
2023/01/17 11:54:53;;;;;;;1.70;0.82;;;;;;;;;;5012043;28;20376;-82
2023/01/17 11:57:38;;;;;;;1.83;0.90;;;;;;;;;;5015955;28;20487;-82
2023/01/17 12:00:27;;;;;;;0.70;0.70;;;;;;;;;;5019430;28;20480;-72
2023/01/17 12:03:15;;;;;;;1.27;0.82;;;;;;;;;;5029539;28;20075;-78
2023/01/17 12:06:08;;;;;;;1.10;0.75;;;;;;;;;;5040646;28;20061;-70
2023/01/17 12:08:53;;;;;;;3.75;1.30;;;;;;;;;;5034292;28;20091;-72
2023/01/17 12:15:00;;;;;;;1.98;1.10;;;;;;;;;;5026208;28;20029;-69
2023/01/17 12:17:45;;;;;;;1.55;0.90;;;;;;;;;;5022757;28;20022;-68
2023/01/17 12:20:50;;;;;;;4.32;1.02;;;;;;;;;;5023937;28;20033;-73
2023/01/17 12:23:41;;;;;;;4.30;1.13;;;;;;;;;;5024660;28;20025;-76
2023/01/17 12:26:41;;;;;;;6.57;1.48;;;;;;;;;;5025677;28;20072;-79
2023/01/17 12:29:45;;;;;;;2.08;0.95;;;;;;;;;;5035750;28;20091;-80
2023/01/17 12:32:30;;;;;;;3.35;0.90;;;;;;;;;;5038594;28;20035;-76
2023/01/17 12:35:15;;;;;;;2.00;0.80;;;;;;;;;;5020880;28;20087;-80
2023/01/17 12:38:04;;;;;;;2.15;0.90;;;;;;;;;;5030490;28;20108;-71
2023/01/17 12:41:01;;;;;;;1.08;0.88;;;;;;;;;;5055454;28;20035;-76
2023/01/17 12:43:47;;;;;;;4.00;0.85;;;;;;;;;;5044794;28;20191;-80
2023/01/17 12:46:37;;;;;;;2.03;0.85;;;;;;;;;;5045948;28;20036;-82
2023/01/17 12:49:22;;;;;;;2.28;0.80;;;;;;;;;;5045095;28;20384;-77
2023/01/17 12:52:11;;;;;;;2.25;1.08;;;;;;;;;;5028340;28;20032;-79
2023/01/17 12:55:00;;;;;;;4.10;1.20;;;;;;;;;;5040611;28;20033;-76
2023/01/17 12:58:05;;;;;;;1.90;0.90;;;;;;;;;;5044305;28;20546;-70
2023/01/17 13:01:03;;;;;;;3.15;1.15;;;;;;;;;;5057262;28;20112;-81
2023/01/17 13:04:07;;;;;;;1.95;0.80;;;;;;;;;;5027590;28;20033;-82
2023/01/17 13:06:56;;;;;;;1.20;0.85;;;;;;;;;;5026577;28;20029;-77
2023/01/17 13:09:44;;;;;;;1.75;1.10;;;;;;;;;;5042077;28;20072;-78
2023/01/17 13:12:31;;;;;;;2.42;0.88;;;;;;;;;;5050588;28;20106;-79
2023/01/17 13:15:23;;;;;;;2.65;0.75;;;;;;;;;;5027997;28;20021;-74
2023/01/17 13:18:14;;;;;;;2.10;1.45;;;;;;;;;;5042073;28;20032;-68
2023/01/17 13:21:18;;;;;;;1.27;0.95;;;;;;;;;;5027716;28;20031;-68
2023/01/17 13:24:23;;;;;;;3.00;1.52;;;;;;;;;;5043210;28;20044;-68
2023/01/17 13:27:23;;;;;;;2.75;0.98;;;;;;;;;;5045618;28;20029;-67
2023/01/17 13:30:08;;;;;;;1.20;0.70;;;;;;;;;;5055010;28;20112;-68
2023/01/17 13:32:56;;;;;;;1.15;0.80;;;;;;;;;;5045399;28;20056;-68
2023/01/17 13:36:03;;;;;;;1.63;0.80;;;;;;;;;;5041860;28;20036;-76
2023/01/17 13:38:57;;;;;;;2.95;0.93;;;;;;;;;;5028430;28;20413;-76
2023/01/17 13:41:55;;;;;;;2.03;0.80;;;;;;;;;;5044176;28;20031;-74
2023/01/17 13:44:40;;;;;;;1.70;1.00;;;;;;;;;;5039359;28;20048;-74
2023/01/17 13:47:30;;;;;;;1.63;0.88;;;;;;;;;;5039597;28;20400;-74
2023/01/17 13:50:34;;;;;;;1.95;0.90;;;;;;;;;;5038718;28;20312;-74
2023/01/17 13:53:26;;;;;;;1.92;0.80;;;;;;;;;;5035923;28;20111;-75
2023/01/17 13:56:14;;;;;;;1.67;0.82;;;;;;;;;;5026991;28;20506;-74
2023/01/17 13:59:03;;;;;;;1.40;0.88;;;;;;;;;;5042766;28;20041;-74
2023/01/17 14:01:49;;;;;;;1.92;0.63;;;;;;;;;;5043981;28;20083;-76
2023/01/17 14:04:55;;;;;;;1.70;0.73;;;;;;;;;;5055296;28;20102;-74
2023/01/17 14:07:46;;;;;;;0.88;0.80;;;;;;;;;;5041276;28;21067;-68
2023/01/17 14:10:38;;;;;;;0.82;0.82;;;;;;;;;;5042403;28;20033;-75
2023/01/17 14:13:34;;;;;;;2.00;0.90;;;;;;;;;;5042630;28;20033;-68
2023/01/17 14:16:19;;;;;;;1.20;0.75;;;;;;;;;;5046630;28;20062;-67
2023/01/17 14:19:23;;;;;;;5.85;1.15;;;;;;;;;;5040767;28;20075;-69
2023/01/17 14:22:28;;;;;;;2.50;0.80;;;;;;;;;;5054651;28;20035;-71
2023/01/17 14:25:16;;;;;;;1.25;0.82;;;;;;;;;;5040797;28;20059;-69
2023/01/17 14:28:20;;;;;;;3.65;2.03;;;;;;;;;;5055523;28;20439;-76
2023/01/17 14:31:08;;;;;;;4.80;1.15;;;;;;;;;;5043575;28;20021;-77
2023/01/17 14:33:53;;;;;;;3.15;1.15;;;;;;;;;;5054194;28;20028;-76
2023/01/17 14:36:38;;;;;;;4.97;1.00;;;;;;;;;;5043475;28;20035;-73
2023/01/17 14:39:24;;;;;;;2.13;1.25;;;;;;;;;;5043552;28;20044;-75
2023/01/17 14:42:14;;;;;;;1.95;0.70;;;;;;;;;;5043363;28;20016;-73
2023/01/17 14:45:04;;;;;;;2.95;0.98;;;;;;;;;;5042636;28;20366;-73
2023/01/17 14:47:50;;;;;;;1.05;0.85;;;;;;;;;;5046475;28;20043;-74
2023/01/17 14:50:36;;;;;;;1.38;0.80;;;;;;;;;;5046838;28;20036;-77
2023/01/17 14:53:26;;;;;;;2.20;1.63;;;;;;;;;;5046912;28;20108;-78
2023/01/17 14:56:13;;;;;;;2.58;1.02;;;;;;;;;;5039519;28;20048;-77
2023/01/17 14:59:15;;;;;;;2.78;1.10;;;;;;;;;;5044328;28;20404;-78
2023/01/17 15:02:01;;;;;;;2.08;1.42;;;;;;;;;;5042073;28;20446;-79
2023/01/17 15:04:52;;;;;;;3.00;1.30;;;;;;;;;;5027593;28;20072;-73
2023/01/17 15:07:37;;;;;;;4.32;1.25;;;;;;;;;;5043725;28;20035;-71
2023/01/17 15:10:25;;;;;;;1.42;0.90;;;;;;;;;;5041245;28;20083;-73
2023/01/17 15:13:10;;;;;;;2.53;1.10;;;;;;;;;;5027087;28;20525;-73
2023/01/17 15:16:06;;;;;;;3.67;1.73;;;;;;;;;;5040975;28;20507;-72
2023/01/17 15:18:52;;;;;;;2.13;1.20;;;;;;;;;;5044869;28;20115;-74
2023/01/17 15:21:41;;;;;;;5.80;1.10;;;;;;;;;;5048855;28;20170;-73
2023/01/17 15:24:33;;;;;;;6.05;1.38;;;;;;;;;;5045679;28;20107;-69
2023/01/17 15:27:18;;;;;;;6.38;1.15;;;;;;;;;;5055278;28;20032;-81
2023/01/17 15:30:05;;;;;;;3.17;1.35;;;;;;;;;;5040052;28;20094;-79
2023/01/17 15:32:50;;;;;;;1.83;1.20;;;;;;;;;;5041246;28;20017;-75
2023/01/17 15:35:36;;;;;;;2.70;1.38;;;;;;;;;;5041202;28;20029;-75
2023/01/17 15:38:21;;;;;;;3.50;1.30;;;;;;;;;;5042543;28;20119;-73
2023/01/17 15:41:12;;;;;;;4.18;1.40;;;;;;;;;;5038957;28;20033;-75
2023/01/17 15:43:57;;;;;;;2.65;1.30;;;;;;;;;;5025350;28;20396;-76
2023/01/17 15:46:43;;;;;;;3.60;1.23;;;;;;;;;;5029595;28;20427;-75
2023/01/17 15:49:29;;;;;;;5.15;1.27;;;;;;;;;;5025264;28;20431;-75
2023/01/17 15:52:15;;;;;;;4.00;1.58;;;;;;;;;;5045942;28;20075;-75
2023/01/17 15:55:11;;;;;;;11.50;2.42;;;;;;;;;;5043508;28;20156;-74
2023/01/17 15:57:56;;;;;;;4.32;1.90;;;;;;;;;;5054242;28;20033;-75
2023/01/17 16:00:43;;;;;;;6.30;1.92;;;;;;;;;;5039278;28;20448;-75
2023/01/17 16:03:29;;;;;;;4.72;1.85;;;;;;;;;;5029742;28;20033;-72
2023/01/17 16:06:28;;;;;;;6.93;2.30;;;;;;;;;;5039825;28;20050;-71
2023/01/17 16:09:18;;;;;;;4.00;1.80;;;;;;;;;;5056727;28;20052;-71
2023/01/17 16:12:04;;;;;;;4.95;1.48;;;;;;;;;;5060838;28;20025;-70
2023/01/17 16:14:49;;;;;;;7.13;2.90;;;;;;;;;;5045193;28;20029;-71
2023/01/17 16:17:34;;;;;;;8.90;2.20;;;;;;;;;;5046252;28;20079;-72
2023/01/17 16:20:21;;;;;;;9.23;2.10;;;;;;;;;;5030603;28;20647;-72
2023/01/17 16:23:08;;;;;;;7.97;1.90;;;;;;;;;;5062775;28;20391;-71
2023/01/17 16:25:53;;;;;;;8.98;2.60;;;;;;;;;;5049166;28;20017;-74
2023/01/17 16:28:38;;;;;;;6.10;2.10;;;;;;;;;;5043796;28;20045;-72
2023/01/17 16:31:23;;;;;;;5.25;2.40;;;;;;;;;;5046913;28;20032;-71
2023/01/17 16:34:10;;;;;;;7.10;3.25;;;;;;;;;;5042476;28;20040;-78
2023/01/17 16:36:55;;;;;;;7.93;3.00;;;;;;;;;;5045874;28;20427;-73
2023/01/17 16:39:41;;;;;;;8.63;3.00;;;;;;;;;;5038780;28;20106;-76
2023/01/17 16:42:26;;;;;;;8.98;4.55;;;;;;;;;;5040554;28;20060;-72
2023/01/17 16:45:12;;;;;;;7.90;2.97;;;;;;;;;;5044653;28;20506;-73
2023/01/17 16:47:57;;;;;;;7.68;3.13;;;;;;;;;;5045363;28;20021;-75
2023/01/17 16:50:47;;;;;;;12.48;2.38;;;;;;;;;;5035811;28;20100;-74
2023/01/17 16:53:32;;;;;;;11.27;4.07;;;;;;;;;;5056201;28;20021;-73
2023/01/17 16:56:18;;;;;;;7.13;2.70;;;;;;;;;;5051955;28;20467;-71
2023/01/17 16:59:03;;;;;;;7.47;2.55;;;;;;;;;;5055206;28;20025;-81
2023/01/17 17:01:49;;;;;;;6.53;2.47;;;;;;;;;;5042393;28;20025;-83
2023/01/17 17:04:34;;;;;;;7.57;3.15;;;;;;;;;;5045115;28;20025;-81
2023/01/17 17:07:19;;;;;;;7.35;2.90;;;;;;;;;;5045135;28;20523;-80
2023/01/17 17:10:05;;;;;;;8.50;3.45;;;;;;;;;;5045869;28;20090;-84
2023/01/17 17:12:50;;;;;;;9.70;4.05;;;;;;;;;;5037326;28;20048;-82
2023/01/17 17:15:39;;;;;;;9.13;3.28;;;;;;;;;;5043526;28;20571;-75
2023/01/17 17:18:25;;;;;;;12.77;4.05;;;;;;;;;;5043480;28;20033;-74
2023/01/17 17:21:11;;;;;;;7.80;3.55;;;;;;;;;;5058802;28;20039;-74
2023/01/17 17:23:57;;;;;;;7.65;3.40;;;;;;;;;;5058587;28;20497;-72
2023/01/17 17:26:43;;;;;;;7.05;3.75;;;;;;;;;;5045377;28;20218;-75
2023/01/17 17:29:28;;;;;;;9.23;3.75;;;;;;;;;;5048862;28;20029;-76
2023/01/17 17:32:13;;;;;;;7.22;3.28;;;;;;;;;;5044784;28;20399;-78
2023/01/17 17:34:59;;;;;;;5.72;3.28;;;;;;;;;;5041407;28;20029;-72
2023/01/17 17:37:44;;;;;;;9.35;3.40;;;;;;;;;;5041894;28;21277;-71
2023/01/17 17:40:29;;;;;;;8.50;3.72;;;;;;;;;;5031103;28;20474;-69
2023/01/17 17:43:15;;;;;;;7.88;2.67;;;;;;;;;;5033561;28;20033;-70
2023/01/17 17:46:00;;;;;;;5.72;3.10;;;;;;;;;;5046982;28;20025;-69
2023/01/17 17:48:45;;;;;;;6.63;3.03;;;;;;;;;;5042039;28;20032;-69
2023/01/17 17:51:35;;;;;;;7.93;3.95;;;;;;;;;;5033478;28;20511;-70
2023/01/17 17:54:21;;;;;;;9.40;3.83;;;;;;;;;;5044936;28;20020;-73
2023/01/17 17:57:06;;;;;;;9.85;3.33;;;;;;;;;;5040685;28;20459;-72
2023/01/17 17:59:54;;;;;;;9.43;3.85;;;;;;;;;;5037547;28;20259;-73
2023/01/17 18:02:40;;;;;;;9.60;4.13;;;;;;;;;;5047757;28;20449;-72
2023/01/17 18:05:25;;;;;;;10.40;4.03;;;;;;;;;;5047084;28;20024;-73
2023/01/17 18:08:10;;;;;;;9.02;4.22;;;;;;;;;;5039730;28;20554;-73